Time;durP1;ratioP1;P1;durP2;ratioP2;P2;SDS_P1;SDS_P2;PMS_P1;PMS_P2;Temp;Humidity;BMP_temperature;BMP_pressure;BME280_temperature;BME280_humidity;BME280_pressure;Samples;Min_cycle;Max_cycle;Signal;HPM_P1;HPM_P2
2022/03/13 00:00:49;;;;;;;10.93;7.23;;;;;;;7.72;25.02;98032.13;8316576;28;20232;-63
2022/03/13 00:04:56;;;;;;;10.97;8.23;;;;;;;7.83;24.53;98031.78;8317315;28;20295;-62
2022/03/13 00:09:00;;;;;;;12.40;7.80;;;;;;;7.89;25.03;98036.75;8316954;28;20233;-62
2022/03/13 00:13:04;;;;;;;11.33;8.30;;;;;;;7.83;24.72;98031.78;8317191;28;20232;-62
2022/03/13 00:17:08;;;;;;;20.33;8.20;;;;;;;7.76;25.80;98040.59;8316633;28;20555;-62
2022/03/13 00:21:12;;;;;;;16.97;12.17;;;;;;;7.74;26.24;98037.22;8316619;28;20235;-62
2022/03/13 00:25:15;;;;;;;13.53;9.97;;;;;;;7.60;25.81;98046.25;8316951;28;20237;-62
2022/03/13 00:29:20;;;;;;;16.53;12.37;;;;;;;7.62;26.71;98041.88;8316507;28;20236;-62
2022/03/13 00:33:23;;;;;;;18.53;11.90;;;;;;;7.51;27.02;98045.69;8316263;28;20555;-62
2022/03/13 00:37:26;;;;;;;16.83;12.07;;;;;;;7.44;27.80;98042.44;8315952;28;20460;-62
2022/03/13 00:41:32;;;;;;;14.03;11.10;;;;;;;7.32;27.22;98043.66;8316106;28;20307;-62
2022/03/13 00:45:36;;;;;;;15.87;10.40;;;;;;;7.20;27.59;98046.63;8305953;28;20233;-63
2022/03/13 00:49:40;;;;;;;13.10;10.20;;;;;;;7.26;27.44;98043.00;8315762;28;20244;-63
2022/03/13 00:53:48;;;;;;;12.70;9.97;;;;;;;7.19;27.33;98037.19;8315808;28;20236;-63
2022/03/13 00:57:51;;;;;;;12.07;10.00;;;;;;;7.07;27.80;98035.81;8315708;28;20253;-63
2022/03/13 01:01:56;;;;;;;13.17;10.43;;;;;;;7.08;27.76;98028.94;8305417;28;20229;-62
2022/03/13 01:06:00;;;;;;;15.13;10.40;;;;;;;7.03;27.81;98029.91;8314585;28;20363;-63
2022/03/13 01:10:03;;;;;;;15.63;10.90;;;;;;;7.05;27.90;98024.72;8315096;28;20236;-63
2022/03/13 01:14:07;;;;;;;15.63;12.10;;;;;;;6.98;28.29;98025.78;8315598;28;20553;-62
2022/03/13 01:18:11;;;;;;;19.23;12.43;;;;;;;7.03;28.22;98023.94;8315154;28;20229;-63
2022/03/13 01:22:14;;;;;;;19.23;13.13;;;;;;;7.05;27.89;98019.56;8315088;28;20235;-62
2022/03/13 01:26:39;;;;;;;15.07;11.00;;;;;;;6.93;26.37;98019.91;8314949;28;20251;-63
2022/03/13 01:30:42;;;;;;;12.40;8.90;;;;;;;6.97;25.65;98029.25;8314838;28;20251;-62
2022/03/13 01:34:48;;;;;;;12.47;8.63;;;;;;;6.90;25.00;98017.44;8314539;28;20237;-62
2022/03/13 01:38:53;;;;;;;10.00;8.03;;;;;;;7.06;25.39;98018.66;8314802;28;20547;-63
2022/03/13 01:42:56;;;;;;;10.53;7.30;;;;;;;7.10;25.96;98011.69;8315104;28;20244;-63
2022/03/13 01:47:00;;;;;;;9.73;7.30;;;;;;;7.06;25.80;98008.38;8316638;28;20201;-62
2022/03/13 01:51:05;;;;;;;10.00;6.93;;;;;;;6.94;25.54;98006.16;8316552;28;20391;-62
2022/03/13 01:55:09;;;;;;;10.00;7.20;;;;;;;6.99;25.70;97999.16;8316463;28;20205;-62
2022/03/13 01:59:14;;;;;;;8.67;6.87;;;;;;;7.03;25.63;98001.59;8316561;28;20201;-62
2022/03/13 02:03:17;;;;;;;10.07;7.33;;;;;;;6.89;25.95;98005.44;8315888;28;20320;-62
2022/03/13 02:07:22;;;;;;;9.80;7.50;;;;;;;6.85;25.84;98008.13;8314139;28;20279;-63
2022/03/13 02:11:30;;;;;;;9.63;7.23;;;;;;;6.84;26.18;98008.16;8314167;28;20241;-63
2022/03/13 02:15:35;;;;;;;10.20;7.63;;;;;;;6.77;26.06;98004.06;8317708;28;20225;-63
2022/03/13 02:19:38;;;;;;;9.03;6.73;;;;;;;6.60;26.84;98000.22;8310641;28;20562;-63
2022/03/13 02:23:47;;;;;;;8.80;7.13;;;;;;;6.67;26.86;97998.34;8320025;28;20228;-62
2022/03/13 02:27:50;;;;;;;9.37;7.07;;;;;;;6.62;26.95;97995.03;8320238;28;20547;-62
2022/03/13 02:31:53;;;;;;;11.70;7.57;;;;;;;6.67;26.58;97993.19;8320204;28;20236;-63
2022/03/13 02:35:58;;;;;;;11.13;7.93;;;;;;;6.35;26.06;97984.63;8319791;28;20237;-62
2022/03/13 02:40:03;;;;;;;13.57;8.03;;;;;;;6.41;26.09;97984.47;8319634;28;20228;-62
2022/03/13 02:44:08;;;;;;;10.83;7.37;;;;;;;6.46;25.37;97974.06;8319695;28;20241;-62
2022/03/13 02:48:11;;;;;;;9.10;6.67;;;;;;;6.23;25.12;97965.22;8319572;28;20235;-62
2022/03/13 02:52:14;;;;;;;8.63;6.70;;;;;;;5.62;24.96;97969.34;8319564;28;20233;-62
2022/03/13 02:56:18;;;;;;;8.47;6.60;;;;;;;5.33;25.39;97972.59;8319371;28;20237;-62
2022/03/13 03:00:23;;;;;;;9.43;6.63;;;;;;;5.58;25.16;97971.16;8319297;28;20232;-62
2022/03/13 03:04:26;;;;;;;9.50;6.40;;;;;;;5.44;25.01;97983.47;8319387;28;20259;-62
2022/03/13 03:08:29;;;;;;;9.37;6.67;;;;;;;5.58;25.07;97981.44;8319135;28;20516;-62
2022/03/13 03:12:34;;;;;;;11.73;6.40;;;;;;;5.70;25.38;97976.88;8318454;28;20233;-62
2022/03/13 03:16:37;;;;;;;8.43;6.83;;;;;;;5.40;25.58;97980.13;8318862;28;20256;-63
2022/03/13 03:20:41;;;;;;;10.20;6.47;;;;;;;5.77;25.37;97983.53;8319032;28;20248;-62
2022/03/13 03:24:44;;;;;;;10.90;6.77;;;;;;;5.48;25.77;97978.22;8318154;28;20237;-62
2022/03/13 03:28:48;;;;;;;9.33;6.97;;;;;;;5.47;25.90;97981.66;8318348;28;20410;-62
2022/03/13 03:32:52;;;;;;;10.57;7.07;;;;;;;5.76;25.32;97979.28;8318320;28;20428;-62
2022/03/13 03:36:56;;;;;;;10.57;6.47;;;;;;;5.26;26.12;97969.34;8318516;28;20232;-62
2022/03/13 03:41:00;;;;;;;10.90;6.80;;;;;;;5.18;26.04;97973.78;8317837;28;20235;-62
2022/03/13 03:45:05;;;;;;;13.50;6.83;;;;;;;5.47;25.81;97981.66;8317602;28;20243;-61
2022/03/13 03:49:08;;;;;;;9.33;6.37;;;;;;;5.87;25.34;97983.25;8317693;28;20236;-62
2022/03/13 03:53:11;;;;;;;8.80;7.20;;;;;;;5.82;25.44;97990.25;8317391;28;20232;-62
2022/03/13 03:57:14;;;;;;;9.23;6.73;;;;;;;5.51;25.63;97981.59;8317478;28;20422;-62
2022/03/13 04:01:18;;;;;;;11.57;6.90;;;;;;;5.34;25.78;97977.69;8317143;28;20243;-62
2022/03/13 04:05:23;;;;;;;11.67;6.70;;;;;;;5.73;25.35;97981.91;8316935;28;20236;-62
2022/03/13 04:09:26;;;;;;;9.93;6.83;;;;;;;5.36;25.59;97987.94;8316829;28;20241;-62
2022/03/13 04:13:29;;;;;;;10.83;6.33;;;;;;;5.00;25.91;97982.75;8317002;28;20228;-62
2022/03/13 04:17:36;;;;;;;7.87;6.50;;;;;;;4.70;26.60;97990.19;8316305;28;20232;-62
2022/03/13 04:21:41;;;;;;;10.37;6.80;;;;;;;5.53;25.89;97995.25;8316722;28;20236;-62
2022/03/13 04:25:45;;;;;;;12.87;6.67;;;;;;;5.64;25.57;97990.72;8316775;28;20283;-62
2022/03/13 04:29:48;;;;;;;9.43;6.60;;;;;;;5.59;25.60;97992.53;8316738;28;20240;-62
2022/03/13 04:33:56;;;;;;;12.03;7.37;;;;;;;5.31;25.68;98003.44;8316595;28;20296;-62
2022/03/13 04:37:59;;;;;;;12.87;7.03;;;;;;;4.76;26.36;97996.94;8316013;28;20236;-62
2022/03/13 04:42:04;;;;;;;8.87;7.30;;;;;;;4.64;26.71;98003.16;8316518;28;20340;-62
2022/03/13 04:46:07;;;;;;;10.50;7.00;;;;;;;4.75;26.47;98008.91;8316154;28;20232;-62
2022/03/13 04:50:12;;;;;;;10.13;7.17;;;;;;;4.25;26.96;98001.34;8315586;28;20444;-62
2022/03/13 04:54:15;;;;;;;9.37;7.07;;;;;;;4.75;26.83;98006.34;8315990;28;20410;-62
2022/03/13 04:58:19;;;;;;;9.97;7.13;;;;;;;5.28;25.96;98006.94;8316279;28;20539;-62
2022/03/13 05:02:21;;;;;;;9.17;7.17;;;;;;;5.01;25.86;98003.25;8315958;28;20240;-62
2022/03/13 05:06:26;;;;;;;11.37;7.50;;;;;;;5.43;25.74;98016.00;8315859;28;20236;-62
2022/03/13 05:10:35;;;;;;;9.77;7.50;;;;;;;4.94;25.95;98011.13;8315135;28;20263;-62
2022/03/13 05:14:38;;;;;;;9.07;6.93;;;;;;;5.33;26.35;98018.81;8315014;28;20344;-62
2022/03/13 05:18:41;;;;;;;10.03;7.07;;;;;;;5.19;25.87;98011.44;8314974;28;20243;-62
2022/03/13 05:22:45;;;;;;;9.53;7.17;;;;;;;5.07;26.10;98017.69;8314807;28;20241;-62
2022/03/13 05:26:48;;;;;;;11.57;8.03;;;;;;;4.63;26.50;98019.44;8314808;28;20237;-62
2022/03/13 05:30:51;;;;;;;9.73;6.80;;;;;;;4.55;26.83;98019.59;8314845;28;20244;-62
2022/03/13 05:34:56;;;;;;;8.93;7.03;;;;;;;4.19;27.17;98027.09;8314823;28;20236;-62
2022/03/13 05:39:00;;;;;;;9.47;7.30;;;;;;;4.15;27.20;98024.59;8314726;28;20422;-62
2022/03/13 05:43:04;;;;;;;11.17;6.73;;;;;;;4.28;26.90;98020.94;8314755;28;20229;-62
2022/03/13 05:47:07;;;;;;;9.13;7.07;;;;;;;4.92;26.33;98034.25;8314687;28;20299;-62
2022/03/13 05:51:10;;;;;;;11.33;7.13;;;;;;;5.13;25.90;98034.69;8319825;28;20542;-62
2022/03/13 05:55:15;;;;;;;8.70;6.70;;;;;;;4.21;26.78;98027.06;8321017;28;20527;-62
2022/03/13 05:59:18;;;;;;;11.90;7.33;;;;;;;4.31;27.07;98036.25;8321263;28;20426;-62
2022/03/13 06:03:23;;;;;;;9.37;6.87;;;;;;;3.99;27.17;98031.69;8321065;28;20236;-62
2022/03/13 06:07:26;;;;;;;13.60;7.10;;;;;;;4.67;26.30;98034.72;8320899;28;20233;-62
2022/03/13 06:11:30;;;;;;;9.17;6.70;;;;;;;4.99;25.93;98035.81;8320533;28;20247;-62
2022/03/13 06:15:34;;;;;;;12.30;6.60;;;;;;;4.62;25.75;98044.22;8320531;28;20248;-62
2022/03/13 06:19:39;;;;;;;7.60;6.40;;;;;;;4.81;25.93;98044.72;8320573;28;20468;-62
2022/03/13 06:23:45;;;;;;;12.43;7.53;;;;;;;5.61;25.27;98052.44;8320050;28;20233;-62
2022/03/13 06:27:50;;;;;;;10.93;7.00;;;;;;;4.61;25.63;98051.97;8319777;28;20247;-62
2022/03/13 06:31:53;;;;;;;11.70;7.17;;;;;;;5.62;25.01;98049.00;8320243;28;20229;-62
2022/03/13 06:35:56;;;;;;;10.10;7.10;;;;;;;5.72;25.33;98054.75;8319950;28;20275;-62
2022/03/13 06:39:59;;;;;;;9.30;6.37;;;;;;;5.75;24.98;98050.41;8319792;28;20236;-62
2022/03/13 06:44:04;;;;;;;8.43;7.03;;;;;;;5.19;25.32;98050.78;8319561;28;20239;-62
2022/03/13 06:48:07;;;;;;;9.47;6.27;;;;;;;5.36;25.22;98054.72;8319090;28;20409;-62
2022/03/13 06:52:10;;;;;;;10.23;7.87;;;;;;;5.63;25.07;98064.34;8319114;28;20254;-62
2022/03/13 06:56:13;;;;;;;10.10;7.07;;;;;;;6.10;24.50;98069.28;8318934;28;20232;-62
2022/03/13 07:00:18;;;;;;;7.80;6.60;;;;;;;6.49;23.94;98073.44;8318594;28;20228;-62
2022/03/13 07:04:23;;;;;;;10.00;6.87;;;;;;;6.03;24.39;98070.31;8318728;28;20497;-62
2022/03/13 07:08:27;;;;;;;9.70;7.60;;;;;;;6.14;23.80;98068.34;8306851;28;20568;-62
2022/03/13 07:12:30;;;;;;;8.53;6.93;;;;;;;6.83;23.87;98069.13;8301660;28;20528;-62
2022/03/13 07:16:34;;;;;;;12.80;7.00;;;;;;;6.96;23.48;98073.91;8301141;28;20497;-62
2022/03/13 07:20:37;;;;;;;9.53;6.57;;;;;;;7.16;23.02;98073.31;8301541;28;20232;-63
2022/03/13 07:24:40;;;;;;;6.63;5.90;;;;;;;7.50;23.19;98075.78;8301134;28;20423;-62
2022/03/13 07:28:43;;;;;;;13.00;6.57;;;;;;;7.26;22.97;98076.50;8301135;28;20255;-62
2022/03/13 07:32:47;;;;;;;8.73;6.73;;;;;;;7.20;23.22;98072.38;8300984;28;20228;-62
2022/03/13 07:36:51;;;;;;;7.73;6.23;;;;;;;8.00;22.11;98064.78;8301115;28;20352;-63
2022/03/13 07:40:54;;;;;;;8.47;6.70;;;;;;;7.81;22.24;98073.09;8300458;28;20300;-62
2022/03/13 07:44:57;;;;;;;7.90;6.60;;;;;;;7.93;21.47;98073.59;8300755;28;20570;-63
2022/03/13 07:49:02;;;;;;;9.20;6.33;;;;;;;7.66;22.03;98073.56;8302217;28;20547;-62
2022/03/13 07:53:04;;;;;;;8.67;6.47;;;;;;;9.04;21.07;98062.94;8290241;28;20237;-62
2022/03/13 07:57:07;;;;;;;9.70;6.83;;;;;;;8.88;20.58;98065.25;8289166;28;20232;-62
2022/03/13 08:01:10;;;;;;;10.00;6.57;;;;;;;7.99;21.69;98069.06;8300218;28;20419;-62
2022/03/13 08:05:16;;;;;;;11.73;6.30;;;;;;;8.72;21.20;98064.09;8301138;28;20300;-62
2022/03/13 08:09:19;;;;;;;7.90;6.50;;;;;;;7.74;21.25;98070.75;8310574;28;20531;-62
2022/03/13 08:13:22;;;;;;;9.77;6.90;;;;;;;8.88;21.14;98065.25;8315973;28;20232;-62
2022/03/13 08:17:25;;;;;;;7.70;6.70;;;;;;;9.51;20.43;98067.22;8316642;28;20236;-62
2022/03/13 08:21:29;;;;;;;9.10;6.17;;;;;;;10.31;19.38;98067.50;8316385;28;20233;-62
2022/03/13 08:25:32;;;;;;;10.53;7.03;;;;;;;9.67;19.78;98065.75;8306109;28;20228;-62
2022/03/13 08:29:35;;;;;;;8.13;6.80;;;;;;;9.81;19.63;98072.13;8298884;28;20225;-63
2022/03/13 08:33:39;;;;;;;10.27;6.80;;;;;;;9.22;20.19;98061.44;8305571;28;20236;-63
2022/03/13 08:37:45;;;;;;;10.10;6.53;;;;;;;11.15;18.75;98070.75;8310048;28;20243;-63
2022/03/13 08:41:48;;;;;;;7.70;6.40;;;;;;;12.55;18.03;98071.09;8298950;28;20225;-64
2022/03/13 08:45:51;;;;;;;7.57;5.90;;;;;;;12.43;16.87;98066.50;8298396;28;20450;-63
2022/03/13 08:49:57;;;;;;;9.07;6.20;;;;;;;12.33;17.17;98068.72;8299146;28;20233;-63
2022/03/13 08:54:02;;;;;;;8.83;6.23;;;;;;;12.47;16.60;98074.06;8300474;28;20236;-64
2022/03/13 08:58:06;;;;;;;8.20;6.33;;;;;;;12.44;16.75;98066.44;8298463;28;20229;-63
2022/03/13 09:02:09;;;;;;;8.63;6.23;;;;;;;12.81;16.59;98066.31;8298325;28;20251;-63
2022/03/13 09:06:12;;;;;;;7.30;5.97;;;;;;;12.92;16.30;98061.38;8297590;28;20239;-63
2022/03/13 09:10:17;;;;;;;10.27;6.07;;;;;;;12.78;16.33;98056.09;8296026;28;20230;-63
2022/03/13 09:14:20;;;;;;;10.00;6.03;;;;;;;12.60;16.57;98056.09;8299206;28;20229;-63
2022/03/13 09:18:22;;;;;;;9.97;6.13;;;;;;;12.89;16.53;98065.00;8296020;28;20396;-63
2022/03/13 09:22:30;;;;;;;7.33;6.50;;;;;;;13.93;15.72;98062.88;8297422;28;20236;-63
2022/03/13 09:26:35;;;;;;;9.30;6.47;;;;;;;12.94;16.15;98056.13;8297015;28;20229;-64
2022/03/13 09:30:39;;;;;;;6.60;5.90;;;;;;;14.57;15.65;98066.19;8297678;28;20248;-64
2022/03/13 09:34:42;;;;;;;9.93;6.83;;;;;;;15.05;15.04;98069.38;8289791;28;20233;-64
2022/03/13 09:38:45;;;;;;;8.20;6.10;;;;;;;14.89;15.20;98063.44;8303675;28;20240;-63
2022/03/13 09:42:50;;;;;;;8.60;6.23;;;;;;;14.87;15.11;98062.69;8295708;28;20547;-65
2022/03/13 09:46:52;;;;;;;11.43;6.17;;;;;;;15.82;14.73;98051.56;8291702;28;20245;-65
2022/03/13 09:50:56;;;;;;;10.03;5.87;;;;;;;15.76;14.69;98053.72;8308340;28;20256;-63
2022/03/13 09:54:59;;;;;;;8.53;6.37;;;;;;;16.24;14.28;98054.09;8314328;28;20228;-63
2022/03/13 09:59:03;;;;;;;8.17;6.47;;;;;;;16.48;13.65;98049.00;8314441;28;20229;-63
2022/03/13 10:03:08;;;;;;;8.77;5.80;;;;;;;15.07;14.35;98045.81;8314195;28;20251;-63
2022/03/13 10:07:15;;;;;;;7.50;6.23;;;;;;;15.62;14.57;98044.97;8298402;28;20228;-63
2022/03/13 10:11:20;;;;;;;6.13;5.50;;;;;;;15.40;14.36;98042.91;8292069;28;20352;-63
2022/03/13 10:15:28;;;;;;;7.40;5.80;;;;;;;15.83;13.69;98039.34;8281699;28;20238;-63
2022/03/13 10:19:32;;;;;;;12.10;6.00;;;;;;;15.03;14.13;98031.28;8281280;28;20249;-63
2022/03/13 10:23:35;;;;;;;11.03;4.53;;;;;;;16.25;35.23;98029.63;8291091;28;20232;-58
2022/03/13 10:27:38;;;;;;;6.97;6.00;;;;;;;15.83;17.92;98018.47;8313737;28;20233;-59
2022/03/13 10:31:54;;;;;;;7.97;6.20;;;;;;;16.03;15.03;98014.56;8314215;28;20244;-58
2022/03/13 10:36:07;;;;;;;7.07;5.57;;;;;;;16.06;14.29;98018.75;8317007;28;20233;-62
2022/03/13 10:40:16;;;;;;;8.87;6.20;;;;;;;16.57;13.94;98013.56;8319698;28;20241;-63
2022/03/13 10:44:21;;;;;;;6.53;5.83;;;;;;;15.75;14.38;98013.75;8319919;28;20229;-63
2022/03/13 10:48:28;;;;;;;10.40;6.07;;;;;;;16.16;15.09;98002.38;8319144;28;20595;-63
2022/03/13 10:52:36;;;;;;;8.27;6.00;;;;;;;16.27;14.48;98011.25;8319386;28;20438;-63
2022/03/13 10:56:40;;;;;;;7.30;5.63;;;;;;;16.39;13.98;98008.66;8310990;28;20327;-63
2022/03/13 11:00:46;;;;;;;7.63;6.10;;;;;;;16.16;14.47;98001.50;8319000;28;20237;-63
2022/03/13 11:04:52;;;;;;;8.20;6.10;;;;;;;16.00;14.52;98005.13;8319275;28;20244;-63
2022/03/13 11:08:56;;;;;;;8.20;5.67;;;;;;;15.51;14.89;98000.44;8316002;28;20420;-62
2022/03/13 11:12:59;;;;;;;6.63;5.93;;;;;;;15.82;14.19;97986.31;8297333;28;20292;-62
2022/03/13 11:17:02;;;;;;;6.77;5.90;;;;;;;16.06;14.84;97985.59;8309529;28;20237;-63
2022/03/13 11:21:08;;;;;;;7.53;5.80;;;;;;;16.28;14.34;97979.78;8304575;28;20232;-63
2022/03/13 11:25:12;;;;;;;6.43;5.67;;;;;;;16.03;15.45;97970.16;8317808;28;20359;-63
2022/03/13 11:29:15;;;;;;;8.80;5.90;;;;;;;16.32;14.80;97965.56;8317994;28;20236;-63
2022/03/13 11:33:34;;;;;;;10.30;6.07;;;;;;;16.11;14.67;97957.41;8318162;28;20241;-63
2022/03/13 11:37:39;;;;;;;9.97;6.13;;;;;;;15.12;15.23;97968.13;8317763;28;20229;-63
2022/03/13 11:41:44;;;;;;;7.80;5.90;;;;;;;16.32;14.74;97946.47;8317743;28;20247;-63
2022/03/13 11:45:54;;;;;;;7.13;5.90;;;;;;;16.02;14.82;97945.78;8317453;28;20233;-63
2022/03/13 11:49:57;;;;;;;11.03;5.50;;;;;;;16.21;14.76;97947.19;8317431;28;20551;-63
2022/03/13 11:54:03;;;;;;;6.37;5.77;;;;;;;16.18;14.71;97945.63;8317619;28;20427;-63
2022/03/13 11:58:06;;;;;;;6.87;6.10;;;;;;;15.84;14.76;97933.97;8317375;28;20239;-62
2022/03/13 12:02:11;;;;;;;9.47;6.30;;;;;;;15.30;15.47;97937.44;8317050;28;20244;-62
2022/03/13 12:06:39;;;;;;;8.30;6.00;;;;;;;16.63;14.66;97932.09;8317171;28;20228;-63
2022/03/13 12:10:45;;;;;;;7.63;5.90;;;;;;;17.14;14.09;97924.16;8316519;28;20235;-63
2022/03/13 12:15:01;;;;;;;9.23;6.03;;;;;;;16.81;14.50;97903.81;8316743;28;20239;-63
2022/03/13 12:19:05;;;;;;;6.80;5.70;;;;;;;16.83;14.27;97908.97;8316736;28;20515;-62
2022/03/13 12:23:09;;;;;;;6.37;5.50;;;;;;;16.92;14.55;97898.69;8316672;28;20562;-63
2022/03/13 12:27:14;;;;;;;12.00;6.20;;;;;;;17.06;14.09;97889.88;8316914;28;20524;-62
2022/03/13 12:31:18;;;;;;;7.37;5.73;;;;;;;17.17;14.46;97892.56;8316179;28;20306;-63
2022/03/13 12:35:21;;;;;;;6.80;5.70;;;;;;;16.59;14.48;97886.22;8312994;28;20582;-63
2022/03/13 12:39:24;;;;;;;9.33;6.30;;;;;;;17.71;14.11;97883.34;8316377;28;20244;-63
2022/03/13 12:43:47;;;;;;;10.10;5.67;;;;;;;17.71;14.03;97878.13;8316623;28;20232;-63
2022/03/13 12:47:55;;;;;;;6.90;5.97;;;;;;;16.52;14.95;97880.56;8315939;28;20240;-63
2022/03/13 12:51:59;;;;;;;7.23;6.00;;;;;;;16.88;14.67;97873.69;8313310;28;20229;-64
2022/03/13 12:56:04;;;;;;;6.97;5.60;;;;;;;16.76;15.06;97867.53;8314074;28;20237;-63
2022/03/13 13:00:10;;;;;;;7.37;6.33;;;;;;;17.08;14.94;97855.75;8314741;28;20240;-63
2022/03/13 13:04:14;;;;;;;10.20;6.00;;;;;;;16.39;15.26;97858.84;8315198;28;20229;-63
2022/03/13 13:08:17;;;;;;;9.63;6.40;;;;;;;17.85;14.52;97857.94;8314838;28;20247;-63
2022/03/13 13:12:23;;;;;;;7.00;6.03;;;;;;;17.92;14.49;97859.16;8315135;28;20236;-63
2022/03/13 13:16:30;;;;;;;8.17;6.03;;;;;;;17.56;14.50;97853.91;8315097;28;20236;-63
2022/03/13 13:20:33;;;;;;;7.60;6.37;;;;;;;17.45;14.42;97843.41;8314935;28;20232;-63
2022/03/13 13:24:48;;;;;;;7.20;6.00;;;;;;;18.08;14.38;97862.25;8315197;28;20243;-64
2022/03/13 13:28:57;;;;;;;9.30;6.10;;;;;;;18.35;14.22;97856.69;8315222;28;20520;-63
2022/03/13 13:33:04;;;;;;;8.53;6.10;;;;;;;17.84;14.34;97848.38;8315191;28;20229;-63
2022/03/13 13:37:08;;;;;;;11.07;6.70;;;;;;;18.67;14.08;97858.53;8314820;28;20229;-63
2022/03/13 13:41:11;;;;;;;8.70;6.90;;;;;;;18.55;14.14;97852.47;8315061;28;20425;-63
2022/03/13 13:45:32;;;;;;;8.23;7.10;;;;;;;17.66;14.82;97838.34;8314794;28;20229;-63
2022/03/13 13:49:37;;;;;;;7.50;6.80;;;;;;;17.89;14.53;97841.03;8313389;28;20237;-63
2022/03/13 13:53:50;;;;;;;8.17;6.43;;;;;;;17.03;15.19;97837.75;8314517;28;20233;-63
2022/03/13 13:58:14;;;;;;;8.43;7.43;;;;;;;17.34;15.13;97843.34;8314628;28;20237;-63
2022/03/13 14:02:19;;;;;;;7.57;6.77;;;;;;;17.72;14.68;97842.28;8314864;28;20228;-63
2022/03/13 14:06:25;;;;;;;8.57;6.60;;;;;;;18.22;14.79;97842.00;8314993;28;20236;-63
2022/03/13 14:10:29;;;;;;;9.53;7.23;;;;;;;18.46;14.32;97842.72;8316586;28;20310;-63
2022/03/13 14:14:32;;;;;;;9.40;7.43;;;;;;;17.72;14.84;97831.81;8320247;28;20231;-63
2022/03/13 14:18:35;;;;;;;10.77;7.00;;;;;;;17.55;15.16;97833.94;8321301;28;20237;-63
2022/03/13 14:22:41;;;;;;;11.97;7.23;;;;;;;17.63;15.39;97830.72;8321016;28;20232;-63
2022/03/13 14:26:44;;;;;;;9.63;7.53;;;;;;;17.42;15.47;97825.31;8320360;28;20237;-63
2022/03/13 14:30:47;;;;;;;7.83;6.70;;;;;;;18.28;14.83;97813.53;8319714;28;20241;-63
2022/03/13 14:34:50;;;;;;;9.10;7.13;;;;;;;18.05;14.95;97817.97;8319759;28;20232;-63
2022/03/13 14:38:55;;;;;;;8.27;7.03;;;;;;;18.20;14.94;97817.72;8318192;28;20288;-63
2022/03/13 14:42:58;;;;;;;7.33;6.60;;;;;;;17.95;15.02;97814.38;8319883;28;20606;-62
2022/03/13 14:47:01;;;;;;;7.87;6.60;;;;;;;17.58;15.55;97820.59;8319788;28;20240;-63
2022/03/13 14:51:04;;;;;;;11.67;6.67;;;;;;;17.93;15.23;97817.13;8316837;28;20248;-62
2022/03/13 14:55:14;;;;;;;6.70;6.03;;;;;;;18.24;15.62;97827.84;8287229;28;20237;-63
2022/03/13 14:59:17;;;;;;;10.57;6.63;;;;;;;18.02;15.13;97833.91;8286717;28;20426;-63
2022/03/13 15:03:20;;;;;;;9.17;6.50;;;;;;;17.69;15.53;97827.66;8286764;28;20245;-63
2022/03/13 15:07:23;;;;;;;11.20;6.80;;;;;;;17.16;15.62;97822.00;8286777;28;20300;-63
2022/03/13 15:11:28;;;;;;;7.60;6.70;;;;;;;17.49;15.45;97821.28;8286123;28;20245;-63
2022/03/13 15:15:31;;;;;;;10.87;7.10;;;;;;;17.62;15.50;97823.00;8285897;28;20237;-64
2022/03/13 15:19:34;;;;;;;9.40;6.60;;;;;;;17.45;15.51;97814.59;8285895;28;20237;-63
2022/03/13 15:23:37;;;;;;;7.67;6.20;;;;;;;17.76;14.99;97817.53;8285762;28;20244;-63
2022/03/13 15:27:42;;;;;;;7.87;7.07;;;;;;;16.73;16.02;97809.41;8286029;28;20240;-63
2022/03/13 15:31:45;;;;;;;7.70;6.90;;;;;;;16.86;16.31;97812.81;8285742;28;20237;-63
2022/03/13 15:35:48;;;;;;;10.63;6.40;;;;;;;16.75;16.41;97818.81;8285708;28;20402;-63
2022/03/13 15:39:51;;;;;;;9.90;6.90;;;;;;;16.86;15.71;97823.28;8285671;28;20245;-63
2022/03/13 15:43:55;;;;;;;7.33;6.30;;;;;;;16.87;16.13;97819.75;8285248;28;20225;-63
2022/03/13 15:47:58;;;;;;;7.00;6.30;;;;;;;17.05;16.54;97821.97;8287515;28;20237;-63
2022/03/13 15:52:03;;;;;;;6.93;6.20;;;;;;;17.05;16.16;97824.56;8317579;28;20231;-63
2022/03/13 15:56:07;;;;;;;8.77;7.10;;;;;;;17.03;16.35;97816.00;8294738;28;20229;-63
2022/03/13 16:00:13;;;;;;;8.27;7.17;;;;;;;16.28;17.17;97824.78;8284913;28;20233;-63
2022/03/13 16:04:17;;;;;;;8.07;6.50;;;;;;;15.99;17.30;97828.47;8284582;28;20233;-63
2022/03/13 16:08:20;;;;;;;7.60;6.80;;;;;;;15.62;17.46;97825.72;8284374;28;20286;-63
2022/03/13 16:12:26;;;;;;;8.10;6.47;;;;;;;15.93;17.45;97828.88;8284532;28;20559;-62
2022/03/13 16:16:31;;;;;;;9.47;6.70;;;;;;;16.05;17.60;97832.44;8284352;28;20244;-63
2022/03/13 16:20:35;;;;;;;7.37;6.07;;;;;;;15.51;17.75;97828.19;8283585;28;20226;-63
2022/03/13 16:24:38;;;;;;;7.67;6.53;;;;;;;15.41;17.90;97827.97;8284076;28;20235;-63
2022/03/13 16:28:41;;;;;;;8.10;6.20;;;;;;;15.17;17.86;97834.81;8284033;28;20233;-62
2022/03/13 16:32:45;;;;;;;9.20;6.47;;;;;;;14.89;17.96;97843.56;8283135;28;20428;-63
2022/03/13 16:36:48;;;;;;;9.20;6.87;;;;;;;14.95;17.95;97837.97;8283813;28;20233;-62
2022/03/13 16:40:53;;;;;;;9.20;6.50;;;;;;;14.88;18.17;97844.50;8283589;28;20668;-62
2022/03/13 16:44:56;;;;;;;8.03;6.40;;;;;;;14.61;18.22;97845.31;8283580;28;20237;-62
2022/03/13 16:49:02;;;;;;;8.63;5.93;;;;;;;14.51;18.22;97849.38;8294070;28;20290;-62
2022/03/13 16:53:04;;;;;;;9.43;6.00;;;;;;;14.31;18.20;97843.66;8315537;28;20233;-64
2022/03/13 16:57:07;;;;;;;7.30;6.30;;;;;;;14.11;18.36;97844.03;8316010;28;20252;-63
2022/03/13 17:01:10;;;;;;;7.50;6.20;;;;;;;14.00;18.41;97850.72;8315449;28;20228;-63
2022/03/13 17:05:15;;;;;;;7.87;6.47;;;;;;;14.21;18.27;97850.38;8312603;28;20421;-63
2022/03/13 17:09:18;;;;;;;8.43;6.63;;;;;;;14.14;18.25;97852.50;8301220;28;20651;-65
2022/03/13 17:13:21;;;;;;;7.63;6.57;;;;;;;13.82;18.54;97854.41;8286236;28;20268;-64
2022/03/13 17:17:25;;;;;;;9.53;6.77;;;;;;;13.60;18.70;97854.84;8315640;28;20416;-65
2022/03/13 17:21:31;;;;;;;8.23;6.20;;;;;;;13.48;18.65;97861.63;8315257;28;20240;-65
2022/03/13 17:25:34;;;;;;;9.50;6.20;;;;;;;13.53;18.81;97861.34;8282206;28;20236;-64
2022/03/13 17:29:37;;;;;;;6.33;5.53;;;;;;;13.52;18.65;97859.66;8282941;28;20247;-65
2022/03/13 17:33:40;;;;;;;8.17;5.50;;;;;;;13.39;18.64;97864.75;8282366;28;20233;-64
2022/03/13 17:37:45;;;;;;;7.30;5.47;;;;;;;13.34;18.69;97857.19;8281978;28;20271;-64
2022/03/13 17:41:50;;;;;;;9.10;5.87;;;;;;;13.18;18.87;97869.38;8287630;28;20224;-65
2022/03/13 17:45:52;;;;;;;7.10;6.00;;;;;;;13.07;19.03;97873.41;8307476;28;20233;-64
2022/03/13 17:49:56;;;;;;;10.73;6.10;;;;;;;13.09;19.05;97862.91;8303558;28;20228;-64
2022/03/13 17:54:00;;;;;;;8.53;7.53;;;;;;;12.73;19.41;97869.22;8292809;28;20233;-64
2022/03/13 17:58:03;;;;;;;11.43;8.87;;;;;;;12.79;19.31;97871.47;8297067;28;20419;-63
2022/03/13 18:02:06;;;;;;;21.03;14.37;;;;;;;12.89;19.56;97882.25;8298766;28;20303;-63
2022/03/13 18:06:10;;;;;;;13.87;8.40;;;;;;;12.89;19.75;97887.44;8292863;28;20237;-63
2022/03/13 18:10:14;;;;;;;10.53;8.00;;;;;;;13.01;19.84;97888.50;8299402;28;20246;-63
2022/03/13 18:14:18;;;;;;;13.60;8.30;;;;;;;12.65;20.56;97889.59;8322067;28;20241;-63
2022/03/13 18:18:21;;;;;;;13.80;8.40;;;;;;;12.60;20.81;97889.81;8322302;28;20278;-63
2022/03/13 18:22:24;;;;;;;12.27;8.93;;;;;;;12.44;20.90;97895.00;8325314;28;20238;-63
2022/03/13 18:26:28;;;;;;;39.53;31.40;;;;;;;12.54;21.76;97900.56;8325163;28;20237;-62
2022/03/13 18:30:31;;;;;;;162.53;131.33;;;;;;;12.89;23.28;97903.84;8324269;28;20414;-63
2022/03/13 18:34:34;;;;;;;35.70;30.67;;;;;;;12.67;22.46;97900.75;8325071;28;20236;-63
2022/03/13 18:38:37;;;;;;;32.53;23.70;;;;;;;12.80;21.72;97896.56;8324777;28;20241;-62
2022/03/13 18:42:42;;;;;;;51.67;41.87;;;;;;;12.75;21.67;97893.38;8324571;28;20240;-63
2022/03/13 18:46:46;;;;;;;35.33;28.90;;;;;;;12.70;22.67;97893.63;8324867;28;20232;-62
2022/03/13 18:50:49;;;;;;;19.73;14.23;;;;;;;12.54;21.36;97897.13;8324784;28;20574;-62
2022/03/13 18:54:52;;;;;;;22.20;16.23;;;;;;;12.17;21.47;97902.50;8297056;28;20240;-62
2022/03/13 18:58:56;;;;;;;11.17;8.67;;;;;;;12.10;21.09;97909.75;8287063;28;20245;-63
2022/03/13 19:03:00;;;;;;;12.77;9.77;;;;;;;11.58;21.47;97908.94;8286244;28;20233;-63
2022/03/13 19:07:04;;;;;;;11.40;9.70;;;;;;;12.16;20.95;97900.81;8286746;28;20229;-63
2022/03/13 19:11:11;;;;;;;17.13;8.80;;;;;;;11.56;21.28;97903.81;8286091;28;20325;-63